createdAt,value
2023-02-03T00:01:25.508Z,1.03
2023-02-03T00:04:27.689Z,0.99
2023-02-03T00:07:30.008Z,0.98
2023-02-03T00:10:34.003Z,0.96
2023-02-03T00:13:36.452Z,0.96
2023-02-03T00:16:38.808Z,0.91
2023-02-03T00:19:41.312Z,0.87
2023-02-03T00:22:43.485Z,0.87
2023-02-03T00:25:45.702Z,0.81
2023-02-03T00:28:48.008Z,0.72
2023-02-03T00:31:50.402Z,0.74
2023-02-03T00:34:52.693Z,0.70
2023-02-03T00:37:56.382Z,0.67
2023-02-03T00:40:58.539Z,0.64
2023-02-03T00:44:00.729Z,0.59
2023-02-03T00:47:02.920Z,0.61
2023-02-03T00:50:06.365Z,0.57
2023-02-03T00:53:08.647Z,0.61
2023-02-03T00:56:12.835Z,0.62
2023-02-03T00:59:15.150Z,0.60
2023-02-03T01:02:17.524Z,0.67
2023-02-03T01:05:19.742Z,0.69
2023-02-03T01:08:23.695Z,0.65
2023-02-03T01:11:27.357Z,0.68
2023-02-03T01:14:29.538Z,0.62
2023-02-03T01:17:31.738Z,0.57
2023-02-03T01:20:33.936Z,0.43
2023-02-03T01:23:37.428Z,0.38
2023-02-03T01:26:39.564Z,0.37
2023-02-03T01:29:41.772Z,0.24
2023-02-03T01:32:44.019Z,0.34
2023-02-03T01:35:46.181Z,0.54
2023-02-03T01:38:48.420Z,0.68
2023-02-03T01:41:50.656Z,0.67
2023-02-03T01:44:52.979Z,0.60
2023-02-03T01:47:58.377Z,0.53
2023-02-03T01:51:02.486Z,0.49
2023-02-03T01:54:05.195Z,0.43
2023-02-03T01:57:34.992Z,0.34
2023-02-03T02:00:37.191Z,0.44
2023-02-03T02:03:47.017Z,0.31
2023-02-03T02:06:49.288Z,0.29
2023-02-03T02:09:51.723Z,0.21
2023-02-03T02:12:56.772Z,0.12
2023-02-03T02:16:24.918Z,0.14
2023-02-03T02:19:44.902Z,0.10
2023-02-03T02:22:53.100Z,0.12
2023-02-03T02:26:30.938Z,0.02
2023-02-03T02:29:33.033Z,-0.01
2023-02-03T02:32:43.805Z,-0.02
2023-02-03T02:35:56.988Z,-0.02
2023-02-03T02:39:21.719Z,-0.11
2023-02-03T02:42:36.538Z,-0.08
2023-02-03T02:45:44.842Z,-0.24
2023-02-03T02:48:46.996Z,-0.23
2023-02-03T02:51:49.982Z,-0.32
2023-02-03T02:54:54.979Z,-0.25
2023-02-03T02:58:02.825Z,-0.27
2023-02-03T03:01:08.183Z,-0.36
2023-02-03T03:04:12.477Z,-0.36
2023-02-03T03:07:23.038Z,-0.40
2023-02-03T03:10:27.740Z,-0.43
2023-02-03T03:13:33.132Z,-0.41
2023-02-03T03:16:37.922Z,-0.43
2023-02-03T03:19:44.243Z,-0.42
2023-02-03T03:22:50.824Z,-0.37
2023-02-03T03:26:00.564Z,-0.40
2023-02-03T03:29:31.209Z,-0.42
2023-02-03T03:32:33.555Z,-0.47
2023-02-03T03:36:01.583Z,-0.51
2023-02-03T03:39:12.534Z,-0.50
2023-02-03T03:42:31.554Z,-0.44
2023-02-03T03:46:13.759Z,-0.47
2023-02-03T03:49:16.738Z,-0.54
2023-02-03T03:52:23.010Z,-0.54
2023-02-03T03:55:28.006Z,-0.62
2023-02-03T03:58:31.763Z,-0.56
2023-02-03T04:01:34.095Z,-0.51
2023-02-03T04:04:37.904Z,-0.48
2023-02-03T04:07:43.129Z,-0.50
2023-02-03T04:10:45.471Z,-0.41
2023-02-03T04:13:47.673Z,-0.41
2023-02-03T04:16:49.926Z,-0.31
2023-02-03T04:19:52.081Z,-0.37
2023-02-03T04:22:54.469Z,-0.29
2023-02-03T04:25:56.929Z,-0.30
2023-02-03T04:28:59.097Z,-0.28
2023-02-03T04:32:01.374Z,-0.27
2023-02-03T04:35:05.126Z,-0.14
2023-02-03T04:38:07.377Z,-0.14
2023-02-03T04:41:09.569Z,-0.53
2023-02-03T04:44:11.996Z,-0.56
2023-02-03T04:47:14.607Z,-0.65
2023-02-03T04:50:16.867Z,-0.47
2023-02-03T04:53:19.040Z,-0.44
2023-02-03T04:56:21.250Z,-0.46
2023-02-03T04:59:23.634Z,-0.53
2023-02-03T05:02:25.827Z,-1.04
2023-02-03T05:05:28.141Z,-0.73
2023-02-03T05:08:31.048Z,-0.84
2023-02-03T05:11:33.451Z,-1.10
2023-02-03T05:14:35.677Z,-0.93
2023-02-03T05:17:40.043Z,-0.73
2023-02-03T05:20:42.268Z,-0.53
2023-02-03T05:23:45.071Z,-0.55
2023-02-03T05:26:47.305Z,-0.54
2023-02-03T05:29:49.507Z,-0.44
2023-02-03T05:32:51.666Z,-0.33
2023-02-03T05:35:53.835Z,-0.31
2023-02-03T05:38:55.991Z,-0.36
2023-02-03T05:41:58.671Z,-0.04
2023-02-03T05:45:00.877Z,-0.29
2023-02-03T05:48:03.183Z,-0.18
2023-02-03T05:51:05.561Z,-0.22
2023-02-03T05:54:08.028Z,-0.34
2023-02-03T05:57:10.192Z,-0.33
2023-02-03T06:00:13.208Z,-0.43
2023-02-03T06:03:15.768Z,-0.60
2023-02-03T06:06:18.462Z,-0.64
2023-02-03T06:09:20.631Z,-0.77
2023-02-03T06:12:22.946Z,-0.53
2023-02-03T06:15:25.126Z,-0.77
2023-02-03T06:18:27.329Z,-0.81
2023-02-03T06:21:29.597Z,-0.83
2023-02-03T06:24:31.868Z,-0.84
2023-02-03T06:27:34.382Z,-0.69
2023-02-03T06:30:36.749Z,-0.46
2023-02-03T06:33:38.948Z,-0.26
2023-02-03T06:36:41.213Z,-0.11
2023-02-03T06:39:43.350Z,0.10
2023-02-03T06:42:47.214Z,0.23
2023-02-03T06:45:49.449Z,0.41
2023-02-03T06:48:51.631Z,0.62
2023-02-03T06:51:53.805Z,0.71
2023-02-03T06:54:55.952Z,0.94
2023-02-03T06:57:58.087Z,0.92
2023-02-03T07:01:00.276Z,0.56
2023-02-03T07:04:02.764Z,0.39
2023-02-03T07:07:05.541Z,0.29
2023-02-03T07:10:08.245Z,0.28
2023-02-03T07:13:10.466Z,0.27
2023-02-03T07:16:12.857Z,0.21
2023-02-03T07:19:15.080Z,0.27
2023-02-03T07:22:17.257Z,0.22
2023-02-03T07:25:19.599Z,0.03
2023-02-03T07:28:21.845Z,0.10
2023-02-03T07:31:24.087Z,0.23
2023-02-03T07:34:26.335Z,0.38
2023-02-03T07:37:28.536Z,0.48
2023-02-03T07:40:30.749Z,0.57
2023-02-03T07:43:33.001Z,0.61
2023-02-03T07:46:35.554Z,0.69
2023-02-03T07:49:37.848Z,0.74
2023-02-03T07:52:40.417Z,0.96
2023-02-03T07:55:42.703Z,0.89
2023-02-03T07:58:44.883Z,0.97
2023-02-03T08:01:47.208Z,1.02
2023-02-03T08:04:49.413Z,0.90
2023-02-03T08:07:51.807Z,0.88
2023-02-03T08:10:56.094Z,0.93
2023-02-03T08:13:58.262Z,0.83
2023-02-03T08:17:00.499Z,0.81
2023-02-03T08:20:02.821Z,0.83
2023-02-03T08:23:05.181Z,0.93
2023-02-03T08:26:07.383Z,1.00
2023-02-03T08:29:11.554Z,1.05
2023-02-03T08:32:16.320Z,1.02
2023-02-03T08:35:18.814Z,1.09
2023-02-03T08:38:21.920Z,1.19
2023-02-03T08:41:24.086Z,1.21
2023-02-03T08:44:26.561Z,1.24
2023-02-03T08:47:28.841Z,1.30
2023-02-03T08:50:31.283Z,1.40
2023-02-03T08:53:33.622Z,1.37
2023-02-03T08:56:35.843Z,1.37
2023-02-03T08:59:40.332Z,1.38
2023-02-03T09:02:42.517Z,1.31
2023-02-03T09:05:44.678Z,1.34
2023-02-03T09:08:46.965Z,1.46
2023-02-03T09:11:49.202Z,1.29
2023-02-03T09:14:51.382Z,1.06
2023-02-03T09:17:55.406Z,0.91
2023-02-03T09:21:05.670Z,0.86
2023-02-03T09:24:08.910Z,0.83
2023-02-03T09:27:11.232Z,0.65
2023-02-03T09:30:14.547Z,0.55
2023-02-03T09:33:16.755Z,0.26
2023-02-03T09:36:18.953Z,0.15
2023-02-03T09:39:21.128Z,0.06
2023-02-03T09:42:41.627Z,0.13
2023-02-03T09:45:43.949Z,-0.06
2023-02-03T09:49:13.302Z,-0.06
2023-02-03T09:52:23.120Z,-0.24
2023-02-03T09:55:30.236Z,-0.26
2023-02-03T09:58:35.776Z,-0.17
2023-02-03T10:01:43.623Z,-0.10
2023-02-03T10:05:16.347Z,-0.15
2023-02-03T10:08:21.548Z,-0.24
2023-02-03T10:12:01.646Z,-0.29
2023-02-03T10:15:41.147Z,-0.19
2023-02-03T10:18:52.197Z,-0.01
2023-02-03T10:21:58.722Z,0.16
2023-02-03T10:25:08.160Z,0.18
2023-02-03T10:28:19.344Z,0.16
2023-02-03T10:31:36.141Z,0.13
2023-02-03T10:34:39.220Z,0.26
2023-02-03T10:37:45.021Z,0.21
2023-02-03T10:40:47.617Z,0.34
2023-02-03T10:43:52.097Z,0.33
2023-02-03T10:46:54.295Z,0.31
2023-02-03T10:49:57.837Z,0.30
2023-02-03T10:53:18.369Z,0.37
2023-02-03T10:56:26.159Z,0.35
2023-02-03T10:59:30.749Z,0.43
2023-02-03T11:02:32.983Z,0.45
2023-02-03T11:05:35.421Z,0.49
2023-02-03T11:08:41.513Z,0.54
2023-02-03T11:11:43.718Z,0.58
2023-02-03T11:14:46.921Z,0.58
2023-02-03T11:17:49.203Z,0.57
2023-02-03T11:20:51.411Z,0.55
2023-02-03T11:23:57.372Z,0.72
2023-02-03T11:27:17.210Z,0.73
2023-02-03T11:30:25.552Z,0.74
2023-02-03T11:33:28.974Z,0.55
2023-02-03T11:36:34.585Z,0.60
2023-02-03T11:39:36.802Z,0.66
2023-02-03T11:42:44.472Z,0.74
2023-02-03T11:45:51.840Z,0.66
2023-02-03T11:49:02.063Z,0.66
2023-02-03T11:52:07.195Z,0.57
2023-02-03T11:55:34.742Z,0.52
2023-02-03T11:59:00.994Z,0.68
2023-02-03T12:02:24.628Z,0.53
2023-02-03T12:05:34.676Z,0.55
2023-02-03T12:09:12.754Z,0.54
2023-02-03T12:12:33.855Z,0.55
2023-02-03T12:15:46.981Z,0.46
2023-02-03T12:19:13.567Z,0.49
2023-02-03T12:22:18.451Z,0.37
2023-02-03T12:25:37.460Z,0.46
2023-02-03T12:28:46.925Z,0.35
2023-02-03T12:31:58.896Z,0.37
2023-02-03T12:35:12.154Z,0.27
2023-02-03T12:38:40.638Z,0.26
2023-02-03T12:41:46.666Z,0.33
2023-02-03T12:44:52.004Z,0.39
2023-02-03T12:48:03.088Z,0.27
2023-02-03T12:51:10.928Z,0.32
2023-02-03T12:54:29.620Z,0.39
2023-02-03T12:57:42.160Z,0.26
2023-02-03T13:00:47.276Z,0.32
2023-02-03T13:03:54.386Z,0.33
2023-02-03T13:07:58.734Z,0.20
2023-02-03T13:11:15.604Z,0.27
2023-02-03T13:14:24.266Z,0.31
2023-02-03T13:17:34.709Z,0.29
2023-02-03T13:20:37.227Z,0.33
2023-02-03T13:23:45.064Z,0.18
2023-02-03T13:27:21.820Z,0.13
2023-02-03T13:30:39.287Z,0.15
2023-02-03T13:33:44.061Z,0.20
2023-02-03T13:37:00.991Z,0.19
2023-02-03T13:40:33.428Z,0.17
2023-02-03T13:43:39.542Z,0.06
2023-02-03T13:46:42.119Z,0.23
2023-02-03T13:49:48.349Z,0.14
2023-02-03T13:53:16.798Z,0.14
2023-02-03T13:56:23.818Z,0.17
2023-02-03T13:59:38.109Z,0.24
2023-02-03T14:02:54.668Z,0.26
2023-02-03T14:05:58.539Z,0.27
2023-02-03T14:09:00.762Z,0.30
2023-02-03T14:12:15.046Z,0.39
2023-02-03T14:15:30.867Z,0.37
2023-02-03T14:18:35.148Z,0.33
2023-02-03T14:21:44.214Z,0.37
2023-02-03T14:24:48.674Z,0.52
2023-02-03T14:28:01.016Z,0.45
2023-02-03T14:31:07.483Z,0.44
2023-02-03T14:34:13.286Z,0.45
2023-02-03T14:37:25.479Z,0.41
2023-02-03T14:40:52.445Z,0.51
2023-02-03T14:44:18.984Z,0.57
2023-02-03T14:47:45.646Z,0.69
2023-02-03T14:51:15.549Z,0.77
2023-02-03T14:54:28.502Z,0.71
2023-02-03T14:57:56.490Z,0.76
2023-02-03T15:00:59.165Z,0.71
2023-02-03T15:04:13.607Z,0.75
2023-02-03T15:07:38.593Z,0.78
2023-02-03T15:10:44.082Z,0.91
2023-02-03T15:13:46.338Z,0.89
2023-02-03T15:16:53.627Z,0.87
2023-02-03T15:19:55.871Z,0.90
2023-02-03T15:22:58.146Z,0.97
2023-02-03T15:26:12.810Z,0.99
2023-02-03T15:29:26.897Z,0.95
2023-02-03T15:32:33.859Z,0.88
2023-02-03T15:35:38.086Z,0.91
2023-02-03T15:38:43.808Z,0.97
2023-02-03T15:41:49.888Z,0.89
2023-02-03T15:45:02.664Z,0.95
2023-02-03T15:48:23.146Z,0.98
2023-02-03T15:51:32.271Z,0.98
2023-02-03T15:54:45.977Z,1.02
2023-02-03T15:57:49.513Z,0.97
2023-02-03T16:00:56.924Z,1.00
2023-02-03T16:03:59.527Z,1.06
2023-02-03T16:07:01.779Z,1.15
2023-02-03T16:10:04.291Z,1.11
2023-02-03T16:13:21.251Z,1.08
2023-02-03T16:17:04.414Z,1.14
2023-02-03T16:20:13.438Z,1.12
2023-02-03T16:23:24.249Z,1.14
2023-02-03T16:26:28.240Z,1.11
2023-02-03T16:29:54.415Z,1.09
2023-02-03T16:33:27.542Z,1.17
2023-02-03T16:36:48.414Z,1.18
2023-02-03T16:40:09.325Z,1.20
2023-02-03T16:43:34.686Z,1.15
2023-02-03T16:46:56.023Z,1.13
2023-02-03T16:50:19.889Z,1.03
2023-02-03T16:53:30.754Z,1.08
2023-02-03T16:56:32.985Z,1.03
2023-02-03T16:59:35.148Z,0.98
2023-02-03T17:02:37.444Z,1.19
2023-02-03T17:05:40.875Z,1.22
2023-02-03T17:08:43.063Z,1.27
2023-02-03T17:11:45.274Z,1.16
2023-02-03T17:14:47.440Z,1.15
2023-02-03T17:17:49.669Z,1.19
2023-02-03T17:20:52.263Z,1.21
2023-02-03T17:23:54.471Z,1.23
2023-02-03T17:26:58.915Z,1.17
2023-02-03T17:30:01.478Z,1.19
2023-02-03T17:33:12.516Z,1.24
2023-02-03T17:36:16.992Z,1.33
2023-02-03T17:56:32.345Z,1.90
2023-02-03T17:59:37.683Z,2.03
2023-02-03T18:02:40.325Z,2.04
2023-02-03T18:05:52.374Z,2.21
2023-02-03T18:09:01.077Z,2.37
2023-02-03T18:12:03.350Z,2.32
2023-02-03T18:15:05.686Z,2.45
2023-02-03T18:18:08.053Z,2.47
2023-02-03T18:21:12.397Z,2.51
2023-02-03T18:24:15.091Z,2.55
2023-02-03T18:27:17.855Z,2.62
2023-02-03T18:30:21.717Z,2.59
2023-02-03T18:33:24.270Z,2.56
2023-02-03T18:36:26.459Z,2.64
2023-02-03T18:39:30.043Z,2.69
2023-02-03T18:42:32.511Z,2.70
2023-02-03T18:45:37.905Z,2.73
2023-02-03T18:48:40.427Z,2.75
2023-02-03T18:51:43.979Z,2.71
2023-02-03T18:54:46.403Z,2.78
2023-02-03T18:57:48.865Z,3.05
2023-02-03T19:00:51.311Z,3.16
2023-02-03T19:03:58.743Z,3.20
2023-02-03T19:07:01.373Z,3.24
2023-02-03T19:10:03.978Z,3.30
2023-02-03T19:13:06.755Z,3.39
2023-02-03T19:16:12.767Z,3.45
2023-02-03T19:19:15.379Z,3.38
2023-02-03T19:22:17.849Z,3.25
2023-02-03T19:25:20.421Z,3.31
2023-02-03T19:28:30.611Z,3.30
2023-02-03T19:31:35.792Z,3.27
2023-02-03T19:34:38.593Z,3.16
2023-02-03T19:37:41.184Z,3.38
2023-02-03T19:40:44.890Z,3.32
2023-02-03T19:43:47.872Z,3.22
2023-02-03T19:46:50.453Z,3.16
2023-02-03T19:49:53.043Z,3.12
2023-02-03T19:52:55.560Z,3.15
2023-02-03T19:55:58.158Z,3.16
2023-02-03T19:59:00.749Z,3.13
2023-02-03T20:02:13.735Z,3.08
2023-02-03T20:05:17.568Z,3.00
2023-02-03T20:08:20.303Z,2.93
2023-02-03T20:11:22.984Z,2.97
2023-02-03T20:14:25.870Z,2.96
2023-02-03T20:17:29.265Z,2.98
2023-02-03T20:20:32.016Z,2.98
2023-02-03T20:23:35.334Z,2.85
2023-02-03T20:26:37.933Z,2.85
2023-02-03T20:29:40.661Z,2.86
2023-02-03T20:32:43.110Z,2.86
2023-02-03T20:35:45.321Z,2.85
2023-02-03T20:38:48.626Z,2.77
2023-02-03T20:41:51.099Z,2.78
2023-02-03T20:44:53.822Z,2.75
2023-02-03T20:47:56.277Z,2.74
2023-02-03T20:50:58.706Z,2.77
2023-02-03T20:54:01.223Z,2.70
2023-02-03T20:57:09.454Z,2.76
2023-02-03T21:00:19.414Z,2.84
2023-02-03T21:03:40.701Z,2.83
2023-02-03T21:06:43.344Z,2.91
2023-02-03T21:09:45.935Z,2.88
2023-02-03T21:12:49.492Z,2.89
2023-02-03T21:15:53.707Z,2.90
2023-02-03T21:19:00.298Z,2.93
2023-02-03T21:22:23.660Z,3.01
2023-02-03T21:25:32.157Z,3.05
2023-02-03T21:28:34.582Z,3.00
2023-02-03T21:31:37.609Z,3.02
2023-02-03T21:34:42.669Z,2.99
2023-02-03T21:37:45.060Z,2.93
2023-02-03T21:40:47.460Z,2.87
2023-02-03T21:43:58.032Z,2.87
2023-02-03T21:47:11.831Z,2.93
2023-02-03T21:50:35.458Z,2.94
2023-02-03T21:53:38.473Z,2.84
2023-02-03T21:56:42.002Z,2.85
2023-02-03T21:59:47.254Z,2.82
2023-02-03T22:02:58.754Z,2.86
2023-02-03T22:06:13.630Z,2.79
2023-02-03T22:09:23.497Z,2.83
2023-02-03T22:12:25.702Z,2.80
2023-02-03T22:15:28.110Z,2.78
2023-02-03T22:18:30.944Z,2.85
2023-02-03T22:21:33.162Z,2.79
2023-02-03T22:24:35.523Z,2.91
2023-02-03T22:27:37.812Z,3.00
2023-02-03T22:30:40.369Z,3.08
2023-02-03T22:33:43.082Z,3.07
2023-02-03T22:36:45.269Z,2.98
2023-02-03T22:39:47.486Z,3.08
2023-02-03T22:42:49.833Z,3.01
2023-02-03T22:45:52.241Z,3.01
2023-02-03T22:48:54.454Z,2.90
2023-02-03T22:51:56.615Z,2.90
2023-02-03T22:54:58.888Z,2.90
2023-02-03T22:58:01.092Z,2.87
2023-02-03T23:01:03.337Z,2.81
2023-02-03T23:04:05.667Z,2.90
2023-02-03T23:07:07.872Z,2.88
2023-02-03T23:10:21.789Z,2.86
2023-02-03T23:13:24.190Z,2.90
2023-02-03T23:16:26.443Z,2.89
2023-02-03T23:19:28.792Z,2.90
2023-02-03T23:22:31.023Z,2.84
2023-02-03T23:25:33.189Z,2.83
2023-02-03T23:28:35.404Z,2.88
2023-02-03T23:31:37.683Z,2.86
2023-02-03T23:34:58.752Z,2.97
2023-02-03T23:38:00.953Z,3.03
2023-02-03T23:41:03.138Z,3.18
2023-02-03T23:44:05.566Z,3.25
2023-02-03T23:47:07.986Z,3.35
2023-02-03T23:50:13.786Z,3.29
2023-02-03T23:53:15.946Z,3.40
2023-02-03T23:56:18.093Z,3.40
2023-02-03T23:59:20.336Z,3.42
